createdAt,value
2023-05-11T00:01:37.526Z,2.80
2023-05-11T00:04:05.924Z,3.20
2023-05-11T00:06:34.347Z,2.90
2023-05-11T00:09:02.691Z,2.80
2023-05-11T00:11:31.254Z,3.20
2023-05-11T00:13:59.185Z,3.10
2023-05-11T00:16:27.489Z,3.00
2023-05-11T00:18:55.644Z,3.00
2023-05-11T00:21:23.784Z,3.10
2023-05-11T00:23:51.939Z,3.30
2023-05-11T00:26:21.662Z,3.00
2023-05-11T00:28:49.603Z,2.80
2023-05-11T00:31:17.911Z,3.20
2023-05-11T00:33:46.837Z,3.10
2023-05-11T00:36:15.229Z,2.90
2023-05-11T00:38:43.511Z,2.90
2023-05-11T00:41:11.493Z,3.00
2023-05-11T00:43:39.589Z,2.90
2023-05-11T00:46:07.838Z,2.90
2023-05-11T00:48:36.002Z,3.00
2023-05-11T00:51:04.654Z,2.90
2023-05-11T00:53:33.142Z,2.80
2023-05-11T00:56:01.565Z,2.90
2023-05-11T00:58:31.308Z,3.10
2023-05-11T01:00:59.306Z,2.80
2023-05-11T01:03:27.728Z,2.70
2023-05-11T01:06:16.929Z,3.00
2023-05-11T01:08:52.879Z,3.30
2023-05-11T01:11:30.994Z,3.10
2023-05-11T01:14:27.807Z,2.80
2023-05-11T01:17:03.901Z,2.50
2023-05-11T01:19:47.274Z,3.10
2023-05-11T01:22:34.952Z,3.10
2023-05-11T01:25:19.518Z,3.30
2023-05-11T01:27:54.077Z,2.80
2023-05-11T01:30:29.537Z,3.00
2023-05-11T01:33:07.882Z,2.40
2023-05-11T01:35:41.528Z,2.60
2023-05-11T01:38:14.321Z,3.20
2023-05-11T01:40:44.590Z,2.60
2023-05-11T01:43:23.814Z,2.90
2023-05-11T01:45:56.023Z,2.90
2023-05-11T01:51:00.482Z,3.60
2023-05-11T01:53:31.541Z,3.40
2023-05-11T01:56:00.889Z,3.10
2023-05-11T01:58:30.600Z,3.60
2023-05-11T02:01:00.443Z,2.60
2023-05-11T02:03:31.480Z,2.90
2023-05-11T02:06:01.697Z,3.10
2023-05-11T02:08:31.877Z,3.40
2023-05-11T02:11:03.005Z,2.80
2023-05-11T02:13:33.438Z,3.00
2023-05-11T02:16:02.749Z,2.40
2023-05-11T02:18:33.366Z,3.50
2023-05-11T02:21:03.234Z,3.60
2023-05-11T02:23:33.245Z,3.80
2023-05-11T02:26:03.920Z,3.30
2023-05-11T02:28:32.212Z,3.20
2023-05-11T02:31:08.582Z,3.50
2023-05-11T02:33:44.868Z,3.10
2023-05-11T02:36:18.930Z,3.00
2023-05-11T02:38:48.381Z,3.00
2023-05-11T02:41:24.291Z,3.50
2023-05-11T02:43:55.932Z,3.50
2023-05-11T02:46:29.669Z,3.00
2023-05-11T02:49:02.817Z,3.10
2023-05-11T02:54:03.253Z,2.80
2023-05-11T02:56:33.442Z,2.80
2023-05-11T02:59:02.578Z,2.90
2023-05-11T03:01:31.421Z,3.10
2023-05-11T03:03:59.860Z,3.40
2023-05-11T03:06:29.059Z,4.10
2023-05-11T03:08:57.444Z,4.20
2023-05-11T03:11:26.457Z,3.10
2023-05-11T03:13:55.104Z,3.70
2023-05-11T03:16:24.874Z,3.20
2023-05-11T03:18:55.779Z,3.10
2023-05-11T03:21:26.463Z,3.10
2023-05-11T03:23:55.723Z,3.60
2023-05-11T03:26:23.979Z,2.90
2023-05-11T03:28:53.950Z,3.00
2023-05-11T03:31:22.181Z,2.70
2023-05-11T03:33:50.454Z,3.20
2023-05-11T03:36:19.493Z,2.60
2023-05-11T03:38:50.176Z,2.40
2023-05-11T03:41:21.709Z,3.10
2023-05-11T03:43:55.476Z,3.40
2023-05-11T03:46:24.707Z,2.90
2023-05-11T03:48:53.528Z,3.30
2023-05-11T03:51:24.553Z,3.10
2023-05-11T03:53:52.683Z,2.70
2023-05-11T03:56:21.971Z,3.10
2023-05-11T03:58:50.370Z,3.00
2023-05-11T04:05:15.068Z,3.40
2023-05-11T04:07:46.922Z,3.60
2023-05-11T04:10:14.873Z,3.30
2023-05-11T04:12:42.904Z,3.00
2023-05-11T04:15:11.582Z,2.90
2023-05-11T04:17:39.828Z,2.80
2023-05-11T04:20:08.193Z,3.20
2023-05-11T04:22:36.117Z,2.60
2023-05-11T04:25:04.887Z,2.70
2023-05-11T04:27:34.590Z,3.00
2023-05-11T04:34:37.757Z,3.20
2023-05-11T04:37:08.465Z,3.40
2023-05-11T04:39:37.891Z,3.00
2023-05-11T08:25:51.636Z,1.40
2023-05-11T08:28:20.664Z,1.40
2023-05-11T08:30:59.199Z,1.20
2023-05-11T08:35:59.106Z,1.20
2023-05-11T08:38:27.144Z,1.40
2023-05-11T08:40:55.094Z,1.40
2023-05-11T08:43:26.339Z,1.60
2023-05-11T08:46:00.735Z,1.40
2023-05-11T08:48:29.525Z,1.20
2023-05-11T08:50:58.044Z,1.30
2023-05-11T08:53:26.318Z,1.60
2023-05-11T08:55:57.962Z,1.30
2023-05-11T08:58:27.906Z,1.40
2023-05-11T09:00:59.424Z,1.30
2023-05-11T09:03:30.894Z,1.10
2023-05-11T09:06:00.550Z,1.10
2023-05-11T09:08:31.898Z,1.30
2023-05-11T09:11:01.124Z,1.60
2023-05-11T09:13:30.205Z,1.50
2023-05-11T09:15:59.134Z,1.40
2023-05-11T09:18:27.415Z,1.10
2023-05-11T09:20:55.533Z,1.30
2023-05-11T09:23:27.358Z,1.30
2023-05-11T09:25:56.103Z,1.60
2023-05-11T09:28:26.064Z,1.40
2023-05-11T09:30:54.383Z,1.30
2023-05-11T09:33:24.869Z,1.90
2023-05-11T09:35:53.875Z,1.50
2023-05-11T09:38:25.366Z,1.30
2023-05-11T09:40:55.881Z,1.50
2023-05-11T09:43:28.785Z,1.10
2023-05-11T09:46:01.792Z,1.30
2023-05-11T09:48:32.155Z,1.20
2023-05-11T09:51:05.690Z,1.30
2023-05-11T09:53:44.071Z,1.30
2023-05-11T09:56:13.195Z,1.00
2023-05-11T09:58:50.795Z,1.40
2023-05-11T10:01:29.621Z,1.70
2023-05-11T10:04:13.399Z,1.20
2023-05-11T10:06:49.527Z,1.50
2023-05-11T10:09:19.650Z,1.20
2023-05-11T10:11:48.367Z,1.30
2023-05-11T10:14:17.688Z,1.30
2023-05-11T10:16:47.357Z,1.30
2023-05-11T10:19:16.209Z,1.00
2023-05-11T10:21:45.143Z,1.30
2023-05-11T10:24:13.929Z,1.30
2023-05-11T10:26:42.774Z,1.30
2023-05-11T10:29:12.225Z,1.30
2023-05-11T10:31:40.796Z,1.50
2023-05-11T10:34:12.285Z,1.80
2023-05-11T10:36:49.801Z,1.50
2023-05-11T10:39:21.545Z,1.60
2023-05-11T10:42:20.076Z,1.50
2023-05-11T10:45:00.197Z,1.20
2023-05-11T10:47:44.999Z,1.50
2023-05-11T10:50:40.412Z,1.50
2023-05-11T10:53:29.960Z,1.60
2023-05-11T10:56:13.514Z,1.40
2023-05-11T10:58:47.651Z,1.30
2023-05-11T11:04:51.255Z,1.30
2023-05-11T11:07:20.238Z,1.50
2023-05-11T11:10:01.676Z,1.30
2023-05-11T11:12:30.018Z,1.20
2023-05-11T11:14:59.227Z,1.20
2023-05-11T11:17:35.111Z,1.90
2023-05-11T11:20:08.910Z,1.80
2023-05-11T11:22:41.599Z,1.90
2023-05-11T11:25:11.760Z,1.80
2023-05-11T11:27:46.145Z,2.10
2023-05-11T11:30:20.384Z,1.90
2023-05-11T11:32:53.300Z,1.60
2023-05-11T11:35:42.855Z,1.50
2023-05-11T11:38:14.497Z,1.60
2023-05-11T11:40:54.404Z,1.60
2023-05-11T11:43:24.794Z,1.50
2023-05-11T11:46:00.864Z,1.50
2023-05-11T11:48:36.251Z,1.70
2023-05-11T11:51:04.778Z,1.60
2023-05-11T11:53:36.151Z,1.70
2023-05-11T11:56:05.555Z,1.60
2023-05-11T11:58:43.137Z,1.40
2023-05-11T12:01:16.851Z,1.70
2023-05-11T12:03:47.567Z,2.00
2023-05-11T12:06:15.669Z,1.50
2023-05-11T12:08:43.692Z,1.60
2023-05-11T12:11:18.184Z,1.90
2023-05-11T12:13:46.849Z,1.60
2023-05-11T12:16:17.247Z,1.50
2023-05-11T12:19:01.023Z,1.70
2023-05-11T12:21:32.394Z,1.50
2023-05-11T12:24:03.072Z,2.00
2023-05-11T12:26:33.130Z,1.60
2023-05-11T12:29:16.800Z,1.40
2023-05-11T12:31:46.980Z,1.70
2023-05-11T12:34:19.892Z,1.80
2023-05-11T12:36:50.273Z,1.40
2023-05-11T12:39:19.197Z,1.40
2023-05-11T12:41:50.511Z,1.70
2023-05-11T12:44:20.661Z,1.40
2023-05-11T12:46:50.830Z,1.30
2023-05-11T12:49:26.580Z,1.90
2023-05-11T12:51:54.994Z,2.00
2023-05-11T12:54:31.394Z,1.90
2023-05-11T12:57:01.941Z,1.60
2023-05-11T12:59:33.419Z,1.80
2023-05-11T13:02:10.808Z,1.70
2023-05-11T13:04:41.191Z,1.70
2023-05-11T13:07:11.187Z,1.70
2023-05-11T13:09:40.336Z,1.80
2023-05-11T13:12:09.325Z,1.50
2023-05-11T13:14:37.506Z,1.60
2023-05-11T13:17:06.164Z,2.50
2023-05-11T13:19:35.002Z,1.70
2023-05-11T13:22:03.571Z,1.90
2023-05-11T13:24:32.941Z,1.70
2023-05-11T13:27:03.784Z,1.80
2023-05-11T13:29:32.110Z,1.60
2023-05-11T13:32:00.209Z,1.70
2023-05-11T13:34:28.372Z,1.80
2023-05-11T13:36:57.661Z,1.60
2023-05-11T13:39:25.840Z,2.20
2023-05-11T13:41:55.769Z,1.80
2023-05-11T13:44:24.159Z,1.90
2023-05-11T13:46:52.216Z,1.90
2023-05-11T13:49:20.617Z,1.60
2023-05-11T13:51:48.618Z,1.50
2023-05-11T13:54:16.607Z,1.70
2023-05-11T13:56:44.772Z,1.70
2023-05-11T13:59:12.783Z,1.70
2023-05-11T14:01:40.952Z,1.70
2023-05-11T14:04:09.053Z,1.60
2023-05-11T14:06:37.964Z,1.50
2023-05-11T14:09:06.191Z,1.60
2023-05-11T14:11:35.124Z,1.60
2023-05-11T14:14:04.037Z,1.80
2023-05-11T14:16:32.273Z,1.40
2023-05-11T14:19:00.860Z,1.60
2023-05-11T14:21:29.260Z,2.00
2023-05-11T14:24:10.725Z,1.90
2023-05-11T14:26:41.132Z,1.40
2023-05-11T14:29:09.749Z,1.50
2023-05-11T14:31:38.932Z,1.60
2023-05-11T14:34:07.434Z,1.50
2023-05-11T14:36:36.937Z,1.40
2023-05-11T14:39:06.185Z,1.70
2023-05-11T14:41:34.832Z,1.50
2023-05-11T14:44:03.382Z,1.50
2023-05-11T14:46:31.740Z,1.40
2023-05-11T14:48:59.905Z,1.50
2023-05-11T14:51:27.990Z,1.50
2023-05-11T14:53:56.240Z,1.70
2023-05-11T14:56:24.244Z,1.50
2023-05-11T14:58:52.392Z,1.50
2023-05-11T15:01:20.669Z,1.40
2023-05-11T15:03:49.655Z,1.30
2023-05-11T15:06:21.644Z,1.50
2023-05-11T15:08:50.634Z,1.70
2023-05-11T15:11:19.785Z,1.60
2023-05-11T15:13:49.011Z,1.30
2023-05-11T15:16:17.094Z,1.60
2023-05-11T15:18:45.460Z,1.70
2023-05-11T15:21:13.634Z,1.50
2023-05-11T15:23:41.633Z,1.50
2023-05-11T15:26:10.048Z,1.20
2023-05-11T15:28:38.029Z,1.40
2023-05-11T15:31:06.164Z,1.60
2023-05-11T15:33:34.708Z,1.80
2023-05-11T15:36:02.763Z,1.70
2023-05-11T15:38:31.069Z,1.30
2023-05-11T15:40:59.894Z,1.50
2023-05-11T15:43:28.052Z,1.30
2023-05-11T15:45:56.671Z,1.60
2023-05-11T15:48:25.097Z,1.60
2023-05-11T15:50:53.249Z,4.00
2023-05-11T15:53:22.447Z,1.40
2023-05-11T15:55:53.621Z,1.40
2023-05-11T15:58:22.516Z,1.50
2023-05-11T16:00:51.243Z,1.50
2023-05-11T16:03:20.072Z,1.50
2023-05-11T16:05:50.017Z,1.30
2023-05-11T16:08:19.081Z,1.00
2023-05-11T16:10:47.352Z,1.30
2023-05-11T16:13:15.935Z,1.60
2023-05-11T16:15:44.109Z,1.40
2023-05-11T16:18:14.354Z,1.50
2023-05-11T16:20:42.742Z,1.60
2023-05-11T16:23:10.953Z,1.50
2023-05-11T16:25:38.972Z,1.40
2023-05-11T16:28:06.996Z,1.30
2023-05-11T16:30:35.089Z,1.20
2023-05-11T16:33:03.365Z,1.30
2023-05-11T16:35:31.867Z,1.50
2023-05-11T16:38:00.202Z,1.40
2023-05-11T16:40:28.484Z,1.20
2023-05-11T16:42:57.348Z,1.80
2023-05-11T16:45:25.939Z,1.30
2023-05-11T16:47:54.197Z,1.60
2023-05-11T16:50:22.420Z,1.30
2023-05-11T16:52:50.565Z,1.60
2023-05-11T16:55:20.286Z,2.00
2023-05-11T16:57:48.388Z,1.50
2023-05-11T17:00:17.025Z,1.40
2023-05-11T17:02:45.512Z,1.70
2023-05-11T17:05:15.701Z,1.70
2023-05-11T17:07:46.251Z,1.40
2023-05-11T17:10:14.437Z,1.30
2023-05-11T17:12:42.509Z,1.50
2023-05-11T17:15:11.066Z,1.40
2023-05-11T17:17:39.930Z,1.50
2023-05-11T17:20:10.230Z,1.50
2023-05-11T17:22:38.430Z,1.40
2023-05-11T17:25:07.916Z,1.50
2023-05-11T17:27:37.368Z,1.20
2023-05-11T17:30:06.825Z,1.50
2023-05-11T17:32:35.608Z,1.70
2023-05-11T17:35:04.826Z,1.60
2023-05-11T17:37:33.322Z,3.30
2023-05-11T17:40:02.044Z,4.30
2023-05-11T17:42:31.087Z,4.80
2023-05-11T17:44:59.058Z,11.30
2023-05-11T17:47:27.288Z,7.50
2023-05-11T17:49:55.854Z,7.10
2023-05-11T17:52:25.992Z,7.40
2023-05-11T17:54:54.052Z,5.30
2023-05-11T17:57:23.477Z,3.50
2023-05-11T17:59:51.850Z,2.40
2023-05-11T18:02:19.860Z,1.80
2023-05-11T18:04:48.062Z,1.90
2023-05-11T18:07:16.108Z,1.90
2023-05-11T18:09:44.132Z,2.00
2023-05-11T18:12:11.996Z,2.10
2023-05-11T18:14:39.938Z,2.30
2023-05-11T18:17:09.165Z,4.90
2023-05-11T18:19:37.495Z,3.60
2023-05-11T18:22:05.573Z,3.70
2023-05-11T18:24:33.770Z,3.80
2023-05-11T18:27:02.255Z,2.20
2023-05-11T18:29:30.256Z,2.30
2023-05-11T18:31:58.446Z,2.20
2023-05-11T18:34:27.763Z,1.90
2023-05-11T18:36:55.651Z,2.30
2023-05-11T18:39:24.340Z,2.80
2023-05-11T18:41:52.300Z,2.60
2023-05-11T18:44:20.239Z,2.80
2023-05-11T18:46:48.693Z,4.20
2023-05-11T18:49:17.232Z,7.90
2023-05-11T18:51:45.611Z,7.90
2023-05-11T18:54:13.552Z,5.00
2023-05-11T18:56:41.848Z,4.80
2023-05-11T18:59:10.664Z,4.40
2023-05-11T19:04:34.843Z,3.60
2023-05-11T19:07:04.080Z,3.10
2023-05-11T19:09:36.063Z,3.10
2023-05-11T19:12:04.414Z,2.90
2023-05-11T19:14:35.016Z,2.60
2023-05-11T19:17:04.729Z,2.90
2023-05-11T19:19:32.863Z,2.80
2023-05-11T19:22:01.113Z,3.70
2023-05-11T19:24:29.198Z,6.20
2023-05-11T19:27:06.453Z,3.50
2023-05-11T19:29:36.151Z,4.00
2023-05-11T19:32:04.711Z,5.60
2023-05-11T19:34:33.594Z,3.80
2023-05-11T19:37:02.275Z,4.30
2023-05-11T19:39:30.206Z,3.70
2023-05-11T19:41:58.127Z,3.70
2023-05-11T19:44:26.508Z,4.40
2023-05-11T19:46:54.605Z,5.80
2023-05-11T19:49:22.635Z,4.10
2023-05-11T19:51:50.505Z,4.00
2023-05-11T19:54:18.464Z,3.30
2023-05-11T19:56:46.899Z,3.20
2023-05-11T19:59:14.932Z,3.20
2023-05-11T20:01:43.286Z,3.70
2023-05-11T20:04:12.997Z,3.10
2023-05-11T20:06:41.215Z,3.50
2023-05-11T20:09:10.454Z,3.00
2023-05-11T20:11:38.612Z,3.50
2023-05-11T20:14:06.732Z,3.70
2023-05-11T20:16:34.941Z,3.80
2023-05-11T20:19:03.283Z,3.40
2023-05-11T20:21:32.300Z,3.40
2023-05-11T20:24:01.950Z,3.30
2023-05-11T20:26:31.130Z,3.50
2023-05-11T20:28:59.377Z,3.30
2023-05-11T20:31:27.478Z,3.40
2023-05-11T20:36:27.365Z,3.20
2023-05-11T20:38:55.553Z,3.70
2023-05-11T20:41:23.640Z,3.70
2023-05-11T20:43:55.590Z,3.70
2023-05-11T20:46:23.969Z,3.60
2023-05-11T20:48:52.463Z,4.00
2023-05-11T20:51:23.297Z,4.00
2023-05-11T20:53:51.836Z,4.40
2023-05-11T20:56:20.049Z,4.20
2023-05-11T20:58:49.115Z,4.50
2023-05-11T21:01:17.397Z,4.00
2023-05-11T21:03:45.678Z,4.40
2023-05-11T21:06:13.691Z,4.00
2023-05-11T21:08:41.846Z,4.30
2023-05-11T21:11:10.800Z,3.90
2023-05-11T21:13:38.956Z,3.60
2023-05-11T21:16:08.364Z,3.60
2023-05-11T21:18:36.531Z,3.90
2023-05-11T21:21:05.158Z,3.80
2023-05-11T21:23:33.300Z,4.20
2023-05-11T21:26:02.523Z,3.80
2023-05-11T21:28:31.059Z,4.00
2023-05-11T21:30:59.231Z,4.10
2023-05-11T21:33:27.768Z,4.00
2023-05-11T21:35:56.781Z,4.10
2023-05-11T21:38:24.874Z,3.80
2023-05-11T21:40:56.521Z,4.30
2023-05-11T21:43:25.628Z,3.90
2023-05-11T21:45:54.003Z,3.80
2023-05-11T21:48:22.342Z,3.90
2023-05-11T21:50:54.593Z,3.90
2023-05-11T21:55:52.114Z,3.80
2023-05-11T21:58:20.618Z,4.10
2023-05-11T22:00:49.173Z,4.20
2023-05-11T22:03:17.319Z,3.90
2023-05-11T22:05:46.151Z,4.30
2023-05-11T22:08:15.802Z,4.00
2023-05-11T22:10:44.344Z,3.80
2023-05-11T22:13:12.504Z,4.10
2023-05-11T22:15:41.497Z,3.60
2023-05-11T22:18:09.649Z,3.60
2023-05-11T22:20:37.956Z,4.10
2023-05-11T22:23:05.943Z,4.00
2023-05-11T22:25:34.085Z,3.80
2023-05-11T22:28:02.251Z,3.40
2023-05-11T22:30:30.605Z,3.80
2023-05-11T22:32:58.877Z,3.60
2023-05-11T22:35:27.098Z,3.50
2023-05-11T22:37:55.378Z,4.20
2023-05-11T22:40:23.439Z,4.00
2023-05-11T22:42:51.414Z,3.60
2023-05-11T22:45:20.538Z,3.70
2023-05-11T22:47:48.585Z,3.70
2023-05-11T22:50:16.872Z,3.30
2023-05-11T22:52:47.421Z,3.70
2023-05-11T22:55:15.466Z,3.20
2023-05-11T22:57:44.484Z,3.60
2023-05-11T23:00:13.674Z,3.30
2023-05-11T23:02:43.362Z,3.90
2023-05-11T23:05:11.946Z,3.20
2023-05-11T23:07:40.227Z,4.20
2023-05-11T23:10:09.317Z,4.10
2023-05-11T23:12:38.835Z,4.00
2023-05-11T23:15:07.876Z,3.70
2023-05-11T23:17:36.331Z,3.80
2023-05-11T23:20:05.182Z,3.90
2023-05-11T23:22:33.274Z,3.50
2023-05-11T23:25:02.148Z,3.60
2023-05-11T23:27:30.337Z,3.70
2023-05-11T23:29:58.611Z,3.70
2023-05-11T23:32:26.930Z,3.50
2023-05-11T23:34:55.360Z,3.20
2023-05-11T23:37:23.554Z,3.80
2023-05-11T23:39:51.865Z,3.30
2023-05-11T23:42:20.031Z,3.50
2023-05-11T23:44:48.080Z,3.60
2023-05-11T23:47:16.258Z,3.20
2023-05-11T23:49:44.379Z,3.40
2023-05-11T23:52:12.692Z,3.60
2023-05-11T23:54:40.928Z,3.90
2023-05-11T23:57:09.481Z,3.70
2023-05-11T23:59:37.872Z,3.50
